Terminal Aerodrome Forecast
Issued by NWS Buffalo, NY

Home | Current Version | Previous Version | Text Only | Print | Product List | Glossary On
Versions: 1 2 3 4 5 6 7 8 9 10 11 12 13 14 15 16 17 18 19 20 21 22 23 24 25 26 27
107
FTUS41 KBUF 170324 AAA
TAFROC
TAF AMD
KROC 170324Z 1703/1724 VRB03KT P6SM OVC100
     FM170900 10006KT P6SM VCSH OVC040
     FM171100 10007KT 6SM -FZRA OVC035
     FM171400 11010KT 6SM -RA OVC015
     FM171700 12011KT 4SM -RA OVC007
     FM172100 17008KT 4SM -RA OVC007=

USA.gov is the U.S. government's official web portal to all federal, state and local government web resources and services.